Terminal Aerodrome Forecast
Issued by NWS Charleston, SC

Home | Current Version | Previous Version | Text Only | Print | Product List | Glossary On
Versions: 1 2 3 4 5 6 7 8 9 10 11 12 13 14 15
356
FTUS42 KCHS 300523
TAFCHS
TAF
KCHS 300523Z 3006/0106 17006KT P6SM FEW250
     FM300900 16004KT P6SM BKN025
      TEMPO 3011/3015 BKN015 OVC025
     FM301500 17014G22KT P6SM SCT030 BKN050
     FM301900 17018G28KT P6SM SCT040
     FM010200 17010KT P6SM SCT060=

USA.gov is the U.S. government's official web portal to all federal, state and local government web resources and services.